createdAt,value
2018-12-29T00:02:13.803Z,8.37
2018-12-29T00:04:42.891Z,7.90
2018-12-29T00:07:12.047Z,9.10
2018-12-29T00:09:40.748Z,8.43
2018-12-29T00:12:09.786Z,8.30
2018-12-29T00:14:38.766Z,8.97
2018-12-29T00:17:07.462Z,8.60
2018-12-29T00:19:36.147Z,8.00
2018-12-29T00:22:05.022Z,7.97
2018-12-29T00:24:33.713Z,7.90
2018-12-29T00:27:03.228Z,7.57
2018-12-29T00:29:31.920Z,6.80
2018-12-29T00:32:00.607Z,7.60
2018-12-29T00:34:29.311Z,8.27
2018-12-29T00:36:59.192Z,7.70
2018-12-29T00:39:28.292Z,8.23
2018-12-29T00:41:56.981Z,7.60
2018-12-29T00:44:25.667Z,7.43
2018-12-29T00:46:54.361Z,7.03
2018-12-29T00:49:23.042Z,7.17
2018-12-29T00:51:52.045Z,6.70
2018-12-29T00:54:20.731Z,7.03
2018-12-29T00:56:49.499Z,6.80
2018-12-29T00:59:18.399Z,7.17
2018-12-29T01:01:47.347Z,6.97
2018-12-29T01:04:16.063Z,7.17
2018-12-29T01:06:44.827Z,7.77
2018-12-29T01:09:13.852Z,6.93
2018-12-29T01:11:42.613Z,7.73
2018-12-29T01:14:11.314Z,7.27
2018-12-29T01:16:40.007Z,7.60
2018-12-29T01:19:08.960Z,7.90
2018-12-29T01:21:37.652Z,7.27
2018-12-29T01:24:06.412Z,8.23
2018-12-29T01:26:35.097Z,7.23
2018-12-29T01:29:04.131Z,8.27
2018-12-29T01:31:32.827Z,8.20
2018-12-29T01:34:01.827Z,8.37
2018-12-29T01:36:30.825Z,9.37
2018-12-29T01:38:59.595Z,8.30
2018-12-29T01:41:28.344Z,9.47
2018-12-29T01:43:57.045Z,9.77
2018-12-29T01:46:25.736Z,10.13
2018-12-29T01:48:54.437Z,9.93
2018-12-29T01:51:23.162Z,9.83
2018-12-29T01:53:52.157Z,10.93
2018-12-29T01:56:20.922Z,11.03
2018-12-29T01:58:49.637Z,9.77
2018-12-29T02:01:18.408Z,10.77
2018-12-29T02:03:47.390Z,10.90
2018-12-29T02:06:16.106Z,11.13
2018-12-29T02:08:44.792Z,10.13
2018-12-29T02:11:13.489Z,9.87
2018-12-29T02:13:42.256Z,10.07
2018-12-29T02:16:11.534Z,10.83
2018-12-29T02:18:40.622Z,9.43
2018-12-29T02:21:09.397Z,9.03
2018-12-29T02:23:38.102Z,9.80
2018-12-29T02:26:06.789Z,9.40
2018-12-29T02:28:35.483Z,9.27
2018-12-29T02:31:04.502Z,9.20
2018-12-29T02:33:33.228Z,10.03
2018-12-29T02:36:01.913Z,10.20
2018-12-29T02:38:30.614Z,9.90
2018-12-29T02:40:59.376Z,8.87
2018-12-29T02:43:28.403Z,9.20
2018-12-29T02:45:57.103Z,8.60
2018-12-29T02:48:25.793Z,8.63
2018-12-29T02:50:54.491Z,8.27
2018-12-29T02:53:24.153Z,8.48
2018-12-29T02:55:52.963Z,8.87
2018-12-29T02:58:22.105Z,8.33
2018-12-29T03:00:50.797Z,8.50
2018-12-29T03:03:19.488Z,8.57
2018-12-29T03:05:48.176Z,9.70
2018-12-29T03:08:16.888Z,9.83
2018-12-29T03:10:45.575Z,9.67
2018-12-29T03:13:14.271Z,8.20
2018-12-29T03:15:42.967Z,9.10
2018-12-29T03:18:11.647Z,9.97
2018-12-29T03:20:40.662Z,8.27
2018-12-29T03:23:09.341Z,8.33
2018-12-29T03:25:38.102Z,9.93
2018-12-29T03:28:06.789Z,8.43
2018-12-29T03:30:35.679Z,9.10
2018-12-29T03:35:40.115Z,9.70
2018-12-29T03:38:08.883Z,8.47
2018-12-29T03:40:37.960Z,8.97
2018-12-29T03:43:06.771Z,8.67
2018-12-29T03:45:35.534Z,7.63
2018-12-29T03:48:04.553Z,8.70
2018-12-29T03:53:07.152Z,8.97
2018-12-29T03:55:35.913Z,8.37
2018-12-29T03:58:04.729Z,7.67
2018-12-29T04:00:33.480Z,8.53
2018-12-29T04:03:02.182Z,8.27
2018-12-29T04:05:31.614Z,7.70
2018-12-29T04:08:00.604Z,7.97
2018-12-29T04:10:29.275Z,8.37
2018-12-29T04:12:59.981Z,8.33
2018-12-29T04:15:28.682Z,8.90
2018-12-29T04:17:57.365Z,7.93
2018-12-29T04:20:26.125Z,7.83
2018-12-29T04:22:54.882Z,8.67
2018-12-29T04:25:25.512Z,7.60
2018-12-29T04:30:28.610Z,9.47
2018-12-29T04:32:57.290Z,8.43
2018-12-29T04:35:25.984Z,10.60
2018-12-29T04:37:55.269Z,9.20
2018-12-29T04:40:23.957Z,9.20
2018-12-29T04:42:52.972Z,9.40
2018-12-29T04:45:21.715Z,8.23
2018-12-29T04:47:50.398Z,8.90
2018-12-29T04:50:19.158Z,9.07
2018-12-29T04:52:47.842Z,10.10
2018-12-29T04:55:16.629Z,9.63
2018-12-29T04:57:45.301Z,9.47
2018-12-29T05:00:13.988Z,9.80
2018-12-29T05:03:01.921Z,9.60
2018-12-29T05:05:30.608Z,8.78
2018-12-29T05:07:59.314Z,8.90
2018-12-29T05:10:27.998Z,9.10
2018-12-29T05:12:56.680Z,9.33
2018-12-29T05:15:25.373Z,9.03
2018-12-29T05:17:54.064Z,9.10
2018-12-29T05:20:22.756Z,9.27
2018-12-29T05:23:10.411Z,9.00
2018-12-29T05:25:39.135Z,10.00
2018-12-29T05:28:07.821Z,8.33
2018-12-29T05:30:36.501Z,8.57
2018-12-29T05:33:05.198Z,9.27
2018-12-29T05:35:33.893Z,9.57
2018-12-29T05:38:21.808Z,10.00
2018-12-29T05:40:50.865Z,9.27
2018-12-29T05:43:19.569Z,10.50
2018-12-29T05:46:07.579Z,10.13
2018-12-29T05:48:36.274Z,10.33
2018-12-29T05:51:24.302Z,10.20
2018-12-29T05:53:52.992Z,10.13
2018-12-29T05:56:21.678Z,9.93
2018-12-29T05:58:50.548Z,10.33
2018-12-29T06:01:38.556Z,9.87
2018-12-29T06:04:26.456Z,9.63
2018-12-29T06:06:55.140Z,10.77
2018-12-29T06:09:23.841Z,10.30
2018-12-29T06:11:52.538Z,10.53
2018-12-29T06:14:21.238Z,10.50
2018-12-29T06:16:49.944Z,10.37
2018-12-29T06:19:18.974Z,10.93
2018-12-29T06:24:22.188Z,11.13
2018-12-29T06:26:50.912Z,10.30
2018-12-29T06:29:19.608Z,10.63
2018-12-29T06:31:48.319Z,11.30
2018-12-29T06:34:17.021Z,10.40
2018-12-29T06:39:52.807Z,10.47
2018-12-29T06:42:21.503Z,9.93
2018-12-29T06:44:50.218Z,10.47
2018-12-29T06:47:18.918Z,10.17
2018-12-29T06:49:47.941Z,10.83
2018-12-29T06:52:16.686Z,10.60
2018-12-29T06:54:45.381Z,10.40
2018-12-29T07:00:07.372Z,9.93
2018-12-29T07:05:10.991Z,10.20
2018-12-29T07:10:13.618Z,9.70
2018-12-29T07:12:42.594Z,10.13
2018-12-29T07:15:11.276Z,10.70
2018-12-29T07:17:39.959Z,10.73
2018-12-29T07:20:08.656Z,10.03
2018-12-29T07:22:37.334Z,9.13
2018-12-29T07:25:06.153Z,11.17
2018-12-29T07:27:34.911Z,9.20
2018-12-29T07:30:22.728Z,10.47
2018-12-29T07:32:51.415Z,9.83
2018-12-29T07:35:20.106Z,10.13
2018-12-29T07:37:48.790Z,10.63
2018-12-29T07:40:17.470Z,10.53
2018-12-29T07:42:46.159Z,10.67
2018-12-29T07:45:14.867Z,10.37
2018-12-29T07:47:43.677Z,11.10
2018-12-29T07:50:31.588Z,10.97
2018-12-29T07:53:00.340Z,9.97
2018-12-29T07:55:29.034Z,10.87
2018-12-29T08:00:32.403Z,10.93
2018-12-29T08:03:01.186Z,9.60
2018-12-29T08:05:29.862Z,10.87
2018-12-29T08:07:58.908Z,10.80
2018-12-29T08:10:27.624Z,10.53
2018-12-29T08:12:56.300Z,11.33
2018-12-29T08:17:59.112Z,11.70
2018-12-29T08:23:02.556Z,11.23
2018-12-29T08:25:31.250Z,11.13
2018-12-29T08:27:59.946Z,11.33
2018-12-29T08:30:28.631Z,11.33
2018-12-29T08:35:32.109Z,12.60
2018-12-29T08:40:34.882Z,11.77
2018-12-29T08:43:03.700Z,11.37
2018-12-29T08:45:32.460Z,11.73
2018-12-29T08:48:01.253Z,12.77
2018-12-29T08:50:30.041Z,10.37
2018-12-29T08:52:58.827Z,11.30
2018-12-29T08:58:02.145Z,12.60
2018-12-29T09:03:05.228Z,11.47
2018-12-29T09:05:33.924Z,12.63
2018-12-29T09:08:02.890Z,12.77
2018-12-29T09:10:31.593Z,12.23
2018-12-29T09:15:34.653Z,12.70
2018-12-29T09:18:03.443Z,12.53
2018-12-29T09:20:32.177Z,11.77
2018-12-29T09:23:00.880Z,11.83
2018-12-29T09:25:29.978Z,13.17
2018-12-29T09:28:17.874Z,11.53
2018-12-29T09:33:20.714Z,12.87
2018-12-29T09:38:43.809Z,12.93
2018-12-29T09:41:31.787Z,12.40
2018-12-29T09:46:35.285Z,12.17
2018-12-29T09:49:04.066Z,11.43
2018-12-29T09:51:32.834Z,12.80
2018-12-29T09:54:01.556Z,11.87
2018-12-29T09:59:23.724Z,13.53
2018-12-29T10:01:52.551Z,13.07
2018-12-29T10:04:21.238Z,12.20
2018-12-29T10:06:50.007Z,12.60
2018-12-29T10:09:18.704Z,13.43
2018-12-29T10:11:47.396Z,12.40
2018-12-29T10:14:35.309Z,12.43
2018-12-29T10:17:04.008Z,13.70
2018-12-29T10:19:33.131Z,12.97
2018-12-29T10:22:01.798Z,13.47
2018-12-29T10:24:49.954Z,12.80
2018-12-29T10:27:18.671Z,13.10
2018-12-29T10:30:06.780Z,13.80
2018-12-29T10:35:10.371Z,13.23
2018-12-29T10:37:39.378Z,12.60
2018-12-29T10:40:08.425Z,13.67
2018-12-29T10:42:37.127Z,15.73
2018-12-29T10:50:35.997Z,14.87
2018-12-29T10:53:04.953Z,14.23
2018-12-29T10:55:34.142Z,13.93
2018-12-29T10:58:02.996Z,15.17
2018-12-29T11:00:35.195Z,14.10
2018-12-29T11:03:02.591Z,13.83
2018-12-29T11:05:32.024Z,13.83
2018-12-29T11:08:01.192Z,14.63
2018-12-29T11:11:09.873Z,14.97
2018-12-29T11:13:39.098Z,15.00
2018-12-29T11:16:09.681Z,15.63
2018-12-29T11:21:12.735Z,14.63
2018-12-29T11:23:41.539Z,15.53
2018-12-29T11:26:10.679Z,15.87
2018-12-29T11:28:40.084Z,14.90
2018-12-29T11:31:09.025Z,16.37
2018-12-29T11:33:37.843Z,15.30
2018-12-29T11:36:06.762Z,15.10
2018-12-29T11:43:58.019Z,15.07
2018-12-29T11:46:26.819Z,16.03
2018-12-29T11:48:55.726Z,16.60
2018-12-29T11:51:24.842Z,15.73
2018-12-29T11:53:53.587Z,14.70
2018-12-29T11:56:41.678Z,14.73
2018-12-29T11:59:12.305Z,15.30
2018-12-29T12:01:41.124Z,14.57
2018-12-29T12:04:10.011Z,15.00
2018-12-29T12:06:38.874Z,15.97
2018-12-29T12:09:07.869Z,14.70
2018-12-29T12:11:37.289Z,14.07
2018-12-29T12:14:06.220Z,14.93
2018-12-29T12:16:35.027Z,13.37
2018-12-29T12:19:03.945Z,14.30
2018-12-29T12:21:32.979Z,14.87
2018-12-29T12:26:36.002Z,14.00
2018-12-29T12:29:04.837Z,14.27
2018-12-29T12:31:35.295Z,15.03
2018-12-29T12:34:23.377Z,14.80
2018-12-29T12:36:52.363Z,14.63
2018-12-29T12:39:21.238Z,13.30
2018-12-29T12:41:50.035Z,13.87
2018-12-29T12:44:19.003Z,13.53
2018-12-29T12:49:43.141Z,13.30
2018-12-29T12:52:12.013Z,14.10
2018-12-29T12:57:34.207Z,13.70
2018-12-29T13:00:44.917Z,13.20
2018-12-29T13:03:14.040Z,13.90
2018-12-29T13:08:36.910Z,14.40
2018-12-29T13:11:25.179Z,12.13
2018-12-29T13:13:53.979Z,12.77
2018-12-29T13:16:22.682Z,14.00
2018-12-29T13:19:10.738Z,12.23
2018-12-29T13:21:39.832Z,14.57
2018-12-29T13:26:43.334Z,12.47
2018-12-29T13:32:05.424Z,14.07
2018-12-29T13:34:54.561Z,13.70
2018-12-29T13:37:25.360Z,13.17
2018-12-29T13:39:54.711Z,12.73
2018-12-29T13:42:23.410Z,12.37
2018-12-29T13:44:52.942Z,13.97
2018-12-29T13:48:01.707Z,13.50
2018-12-29T13:50:30.873Z,12.97
2018-12-29T13:52:59.735Z,13.77
2018-12-29T13:55:28.672Z,12.40
2018-12-29T13:57:57.397Z,14.13
2018-12-29T14:03:00.565Z,14.00
2018-12-29T14:08:04.857Z,14.53
2018-12-29T14:10:33.804Z,14.97
2018-12-29T14:13:02.719Z,13.97
2018-12-29T14:15:33.182Z,13.57
2018-12-29T14:18:01.900Z,14.67
2018-12-29T14:20:30.646Z,14.87
2018-12-29T14:22:59.571Z,13.90
2018-12-29T14:25:28.463Z,16.37
2018-12-29T14:27:59.397Z,15.70
2018-12-29T14:30:47.221Z,16.20
2018-12-29T14:33:16.059Z,14.83
2018-12-29T14:35:47.035Z,16.67
2018-12-29T14:38:15.897Z,15.10
2018-12-29T14:40:44.702Z,14.90
2018-12-29T14:43:13.712Z,14.03
2018-12-29T14:45:42.506Z,13.47
2018-12-29T14:48:12.998Z,15.07
2018-12-29T14:50:41.837Z,15.73
2018-12-29T14:53:10.857Z,14.30
2018-12-29T14:55:40.511Z,15.07
2018-12-29T14:58:28.371Z,14.87
2018-12-29T15:03:31.046Z,15.73
2018-12-29T15:06:19.154Z,14.90
2018-12-29T15:09:07.212Z,14.80
2018-12-29T15:14:10.558Z,16.03
2018-12-29T15:19:16.189Z,15.13
2018-12-29T15:22:03.974Z,16.00
2018-12-29T15:24:52.297Z,14.13
2018-12-29T15:27:21.287Z,14.57
2018-12-29T15:30:09.623Z,15.87
2018-12-29T15:32:38.569Z,13.93
2018-12-29T15:35:09.083Z,15.37
2018-12-29T15:38:17.578Z,16.10
2018-12-29T15:40:48.161Z,14.03
2018-12-29T15:43:17.266Z,16.10
2018-12-29T15:45:46.050Z,15.37
2018-12-29T15:48:14.925Z,15.10
2018-12-29T15:53:18.487Z,14.13
2018-12-29T15:58:21.928Z,16.40
2018-12-29T16:00:50.728Z,14.80
2018-12-29T16:03:38.604Z,14.80
2018-12-29T16:06:07.438Z,19.13
2018-12-29T16:08:36.259Z,16.73
2018-12-29T16:14:41.685Z,15.73
2018-12-29T16:22:34.756Z,16.70
2018-12-29T16:28:16.928Z,14.77
2018-12-29T16:31:04.821Z,14.30
2018-12-29T16:33:35.262Z,13.97
2018-12-29T16:36:05.795Z,15.53
2018-12-29T16:38:34.487Z,15.50
2018-12-29T16:41:45.479Z,14.13
2018-12-29T16:44:33.501Z,15.17
2018-12-29T16:47:21.637Z,15.37
2018-12-29T16:49:50.346Z,16.30
2018-12-29T16:52:20.852Z,15.20
2018-12-29T16:54:49.571Z,15.37
2018-12-29T16:57:37.702Z,15.13
2018-12-29T17:00:06.714Z,14.87
2018-12-29T17:02:54.728Z,17.80
2018-12-29T17:05:23.432Z,14.10
2018-12-29T17:07:53.881Z,13.83
2018-12-29T17:10:22.601Z,14.50
2018-12-29T17:13:10.605Z,13.97
2018-12-29T17:15:39.309Z,15.23
2018-12-29T17:18:10.332Z,15.33
2018-12-29T17:20:39.045Z,13.90
2018-12-29T17:23:07.746Z,13.37
2018-12-29T17:25:57.642Z,12.70
2018-12-29T17:28:28.490Z,13.43
2018-12-29T17:33:44.404Z,12.50
2018-12-29T17:38:47.854Z,12.40
2018-12-29T17:44:09.652Z,11.53
2018-12-29T17:46:57.589Z,11.47
2018-12-29T17:49:26.352Z,10.97
2018-12-29T17:51:56.782Z,10.33
2018-12-29T17:54:25.475Z,11.07
2018-12-29T17:57:13.504Z,9.93
2018-12-29T17:59:42.193Z,11.53
2018-12-29T18:02:10.985Z,10.20
2018-12-29T18:04:40.031Z,11.07
2018-12-29T18:07:09.227Z,11.40
2018-12-29T18:09:38.004Z,9.80
2018-12-29T18:12:06.685Z,8.90
2018-12-29T18:14:35.699Z,9.77
2018-12-29T18:17:23.750Z,8.87
2018-12-29T18:20:11.768Z,9.17
2018-12-29T18:22:40.468Z,8.70
2018-12-29T18:25:09.232Z,8.27
2018-12-29T18:30:13.745Z,8.03
2018-12-29T18:35:29.596Z,7.93
2018-12-29T18:37:58.304Z,8.17
2018-12-29T18:40:27.368Z,8.83
2018-12-29T18:42:56.120Z,7.77
2018-12-29T18:45:26.612Z,6.23
2018-12-29T18:47:55.319Z,7.07
2018-12-29T18:50:24.097Z,7.07
2018-12-29T18:52:52.856Z,6.97
2018-12-29T18:55:21.643Z,6.07
2018-12-29T18:57:52.124Z,6.83
2018-12-29T19:00:20.888Z,6.53
2018-12-29T19:02:49.620Z,6.03
2018-12-29T19:05:18.392Z,5.33
2018-12-29T19:07:47.167Z,5.93
2018-12-29T19:10:15.927Z,6.47
2018-12-29T19:12:44.623Z,5.87
2018-12-29T19:17:47.772Z,5.53
2018-12-29T19:22:53.276Z,5.43
2018-12-29T19:33:27.595Z,5.07
2018-12-29T19:35:56.704Z,5.13
2018-12-29T19:38:25.395Z,5.20
2018-12-29T19:40:54.721Z,4.80
2018-12-29T19:43:25.127Z,4.77
2018-12-29T19:45:53.806Z,4.93
2018-12-29T19:48:22.791Z,3.50
2018-12-29T19:50:53.205Z,4.70
2018-12-29T19:55:57.546Z,4.87
2018-12-29T20:01:20.206Z,4.43
2018-12-29T20:06:23.039Z,3.40
2018-12-29T20:09:10.933Z,4.20
2018-12-29T20:11:39.630Z,5.13
2018-12-29T20:14:08.341Z,4.50
2018-12-29T20:16:37.030Z,4.30
2018-12-29T20:19:25.189Z,4.37
2018-12-29T20:21:54.154Z,4.17
2018-12-29T20:24:24.545Z,4.70
2018-12-29T20:26:53.223Z,4.20
2018-12-29T20:29:22.320Z,4.67
2018-12-29T20:37:12.595Z,4.93
2018-12-29T20:39:41.285Z,4.73
2018-12-29T20:42:09.984Z,5.20
2018-12-29T20:44:39.030Z,4.80
2018-12-29T20:47:27.038Z,5.53
2018-12-29T20:49:55.780Z,5.73
2018-12-29T20:54:58.966Z,5.70
2018-12-29T20:57:27.650Z,5.63
2018-12-29T20:59:56.365Z,5.70
2018-12-29T21:02:25.048Z,5.53
2018-12-29T21:05:13.075Z,7.17
2018-12-29T21:07:41.830Z,6.13
2018-12-29T21:12:44.719Z,6.33
2018-12-29T21:15:33.065Z,7.73
2018-12-29T21:20:49.662Z,7.47
2018-12-29T21:23:18.686Z,7.53
2018-12-29T21:25:47.364Z,7.13
2018-12-29T21:28:16.044Z,7.57
2018-12-29T21:30:44.722Z,8.30
2018-12-29T21:33:13.496Z,8.37
2018-12-29T21:35:42.197Z,7.83
2018-12-29T21:38:12.703Z,8.27
2018-12-29T21:40:41.461Z,7.70
2018-12-29T21:43:10.133Z,7.87
2018-12-29T21:48:13.480Z,8.60
2018-12-29T21:50:42.193Z,8.63
2018-12-29T21:53:30.118Z,7.77
2018-12-29T21:55:58.813Z,8.10
2018-12-29T21:58:27.847Z,10.07
2018-12-29T22:00:56.830Z,9.83
2018-12-29T22:03:25.528Z,10.40
2018-12-29T22:05:54.216Z,8.57
2018-12-29T22:08:22.928Z,8.47
2018-12-29T22:11:10.935Z,8.77
2018-12-29T22:13:59.022Z,8.97
2018-12-29T22:16:28.047Z,10.73
2018-12-29T22:21:30.684Z,8.97
2018-12-29T22:23:59.377Z,8.83
2018-12-29T22:26:28.071Z,9.37
2018-12-29T22:29:16.073Z,11.10
2018-12-29T22:31:45.069Z,9.30
2018-12-29T22:34:14.051Z,9.30
2018-12-29T22:36:42.737Z,10.17
2018-12-29T22:39:11.500Z,10.43
2018-12-29T22:41:40.195Z,10.07
2018-12-29T22:46:43.680Z,10.50
2018-12-29T22:51:47.067Z,9.03
2018-12-29T22:56:52.377Z,10.03
2018-12-29T22:59:21.156Z,9.97
2018-12-29T23:01:49.848Z,9.90
2018-12-29T23:04:18.585Z,9.53
2018-12-29T23:06:47.549Z,8.53
2018-12-29T23:09:17.974Z,10.67
2018-12-29T23:11:46.729Z,8.63
2018-12-29T23:14:15.428Z,8.70
2018-12-29T23:16:44.440Z,8.27
2018-12-29T23:19:13.138Z,8.53
2018-12-29T23:22:01.428Z,9.80
2018-12-29T23:24:30.499Z,8.47
2018-12-29T23:26:59.173Z,9.20
2018-12-29T23:29:27.864Z,8.43
2018-12-29T23:31:56.560Z,9.47
2018-12-29T23:37:15.151Z,12.43
2018-12-29T23:39:44.184Z,10.30
2018-12-29T23:42:13.247Z,10.07
2018-12-29T23:47:36.148Z,9.17
2018-12-29T23:50:05.266Z,10.07
2018-12-29T23:55:41.538Z,9.97
2018-12-29T23:58:11.990Z,8.53
